createdAt,value
2023-06-11T00:00:08.644Z,994.04
2023-06-11T00:01:08.607Z,994.04
2023-06-11T00:02:08.607Z,993.98
2023-06-11T00:03:08.791Z,994.09
2023-06-11T00:04:08.693Z,994.08
2023-06-11T00:05:08.828Z,994.05
2023-06-11T00:06:08.572Z,994.08
2023-06-11T00:07:08.559Z,994.10
2023-06-11T00:08:09.557Z,994.05
2023-06-11T00:09:08.576Z,994.07
2023-06-11T00:10:08.593Z,994.09
2023-06-11T00:11:08.528Z,994.14
2023-06-11T00:12:08.558Z,994.15
2023-06-11T00:13:08.514Z,994.10
2023-06-11T00:14:08.543Z,994.11
2023-06-11T00:15:08.760Z,994.12
2023-06-11T00:16:08.509Z,994.09
2023-06-11T00:17:08.500Z,994.17
2023-06-11T00:18:08.574Z,994.11
2023-06-11T00:19:08.504Z,994.15
2023-06-11T00:20:08.466Z,994.13
2023-06-11T00:21:08.466Z,994.16
2023-06-11T00:22:08.445Z,994.13
2023-06-11T00:23:08.468Z,994.15
2023-06-11T00:24:08.504Z,994.21
2023-06-11T00:25:08.679Z,994.14
2023-06-11T00:26:08.441Z,994.24
2023-06-11T00:27:08.407Z,994.20
2023-06-11T00:28:08.432Z,994.19
2023-06-11T00:29:08.422Z,994.15
2023-06-11T00:30:08.391Z,994.24
2023-06-11T00:31:08.414Z,994.23
2023-06-11T00:32:08.458Z,994.16
2023-06-11T00:33:08.494Z,994.15
2023-06-11T00:34:08.368Z,994.23
2023-06-11T00:35:08.926Z,994.22
2023-06-11T00:36:08.345Z,994.17
2023-06-11T00:37:08.338Z,994.18
2023-06-11T00:38:08.335Z,994.11
2023-06-11T00:39:08.329Z,994.16
2023-06-11T00:40:08.309Z,994.16
2023-06-11T00:41:08.295Z,994.16
2023-06-11T00:42:08.306Z,994.15
2023-06-11T00:43:08.298Z,994.15
2023-06-11T00:44:08.264Z,994.14
2023-06-11T00:45:08.364Z,994.08
2023-06-11T00:46:08.333Z,994.12
2023-06-11T00:47:08.264Z,994.09
2023-06-11T00:48:08.307Z,994.09
2023-06-11T00:49:08.234Z,994.10
2023-06-11T00:50:08.223Z,994.09
2023-06-11T00:51:08.208Z,994.04
2023-06-11T00:52:08.229Z,994.11
2023-06-11T00:53:08.196Z,994.01
2023-06-11T00:54:08.179Z,994.14
2023-06-11T00:55:08.300Z,994.19
2023-06-11T00:56:08.187Z,994.10
2023-06-11T00:57:09.192Z,994.16
2023-06-11T00:58:08.200Z,994.19
2023-06-11T00:59:08.149Z,994.19
2023-06-11T01:00:08.163Z,994.28
2023-06-11T01:01:08.225Z,994.24
2023-06-11T01:02:08.136Z,994.25
2023-06-11T01:03:08.147Z,994.25
2023-06-11T01:04:08.217Z,994.25
2023-06-11T01:05:08.206Z,994.28
2023-06-11T01:06:08.130Z,994.22
2023-06-11T01:07:08.073Z,994.22
2023-06-11T01:08:08.072Z,994.18
2023-06-11T01:09:08.062Z,994.28
2023-06-11T01:10:08.060Z,994.25
2023-06-11T01:11:11.051Z,994.25
2023-06-11T01:12:09.036Z,994.26
2023-06-11T01:13:08.032Z,994.23
2023-06-11T01:14:08.036Z,994.21
2023-06-11T01:15:08.081Z,994.21
2023-06-11T01:16:08.031Z,994.24
2023-06-11T01:17:08.094Z,994.23
2023-06-11T01:18:08.081Z,994.27
2023-06-11T01:19:07.982Z,994.23
2023-06-11T01:20:08.006Z,994.22
2023-06-11T01:21:07.971Z,994.31
2023-06-11T01:22:07.959Z,994.33
2023-06-11T01:23:07.953Z,994.27
2023-06-11T01:24:07.997Z,994.32
2023-06-11T01:25:08.181Z,994.27
2023-06-11T01:26:07.920Z,994.40
2023-06-11T01:27:07.919Z,994.24
2023-06-11T01:28:07.921Z,994.37
2023-06-11T01:29:07.926Z,994.36
2023-06-11T01:30:07.928Z,994.35
2023-06-11T01:31:07.910Z,994.36
2023-06-11T01:32:07.893Z,994.38
2023-06-11T01:33:07.904Z,994.37
2023-06-11T01:34:07.891Z,994.36
2023-06-11T01:35:08.251Z,994.34
2023-06-11T01:36:07.850Z,994.36
2023-06-11T01:37:07.842Z,994.41
2023-06-11T01:38:07.830Z,994.35
2023-06-11T01:39:07.865Z,994.39
2023-06-11T01:40:07.825Z,994.40
2023-06-11T01:41:07.806Z,994.41
2023-06-11T01:42:07.804Z,994.40
2023-06-11T01:43:07.824Z,994.44
2023-06-11T01:44:07.817Z,994.47
2023-06-11T01:45:07.856Z,994.45
2023-06-11T01:46:07.820Z,994.42
2023-06-11T01:47:07.756Z,994.36
2023-06-11T01:48:07.815Z,994.42
2023-06-11T01:49:07.775Z,994.35
2023-06-11T01:50:07.808Z,994.40
2023-06-11T01:51:07.732Z,994.36
2023-06-11T01:52:07.721Z,994.39
2023-06-11T01:53:07.744Z,994.38
2023-06-11T01:54:07.726Z,994.42
2023-06-11T01:55:07.956Z,994.40
2023-06-11T01:56:07.691Z,994.41
2023-06-11T01:57:07.682Z,994.36
2023-06-11T01:58:07.710Z,994.40
2023-06-11T01:59:07.695Z,994.38
2023-06-11T02:00:07.659Z,994.40
2023-06-11T02:01:07.651Z,994.40
2023-06-11T02:02:07.697Z,994.43
2023-06-11T02:03:07.692Z,994.40
2023-06-11T02:04:07.786Z,994.45
2023-06-11T02:05:07.726Z,994.44
2023-06-11T02:06:07.617Z,994.39
2023-06-11T02:07:07.650Z,994.39
2023-06-11T02:08:08.605Z,994.41
2023-06-11T02:09:07.600Z,994.40
2023-06-11T02:10:07.583Z,994.35
2023-06-11T02:11:07.588Z,994.35
2023-06-11T02:12:07.610Z,994.39
2023-06-11T02:13:07.562Z,994.34
2023-06-11T02:14:07.560Z,994.36
2023-06-11T02:15:07.628Z,994.33
2023-06-11T02:16:07.555Z,994.37
2023-06-11T02:17:07.561Z,994.35
2023-06-11T02:18:07.624Z,994.41
2023-06-11T02:19:07.509Z,994.39
2023-06-11T02:20:07.542Z,994.42
2023-06-11T02:21:07.504Z,994.41
2023-06-11T02:22:07.523Z,994.39
2023-06-11T02:23:07.491Z,994.40
2023-06-11T02:24:07.505Z,994.38
2023-06-11T02:25:07.488Z,994.35
2023-06-11T02:26:07.473Z,994.37
2023-06-11T02:27:07.480Z,994.34
2023-06-11T02:28:07.473Z,994.43
2023-06-11T02:29:07.444Z,994.38
2023-06-11T02:30:07.443Z,994.38
2023-06-11T02:31:07.447Z,994.38
2023-06-11T02:32:07.541Z,994.38
2023-06-11T02:33:07.514Z,994.39
2023-06-11T02:34:07.407Z,994.40
2023-06-11T02:35:07.403Z,994.46
2023-06-11T02:36:07.405Z,994.43
2023-06-11T02:37:07.380Z,994.41
2023-06-11T02:38:07.393Z,994.41
2023-06-11T02:39:07.362Z,994.44
2023-06-11T02:40:07.373Z,994.41
2023-06-11T02:41:07.378Z,994.45
2023-06-11T02:42:07.334Z,994.41
2023-06-11T02:43:07.332Z,994.37
2023-06-11T02:44:07.323Z,994.47
2023-06-11T02:45:07.437Z,994.45
2023-06-11T02:46:07.419Z,994.40
2023-06-11T02:47:07.322Z,994.46
2023-06-11T02:48:07.364Z,994.33
2023-06-11T02:49:07.294Z,994.39
2023-06-11T02:50:07.280Z,994.41
2023-06-11T02:51:07.305Z,994.40
2023-06-11T02:52:07.267Z,994.34
2023-06-11T02:53:07.270Z,994.39
2023-06-11T02:54:07.237Z,994.41
2023-06-11T02:55:07.265Z,994.41
2023-06-11T02:56:07.255Z,994.47
2023-06-11T02:57:07.222Z,994.42
2023-06-11T02:58:07.217Z,994.38
2023-06-11T02:59:07.209Z,994.42
2023-06-11T03:00:07.251Z,994.40
2023-06-11T03:01:07.223Z,994.36
2023-06-11T03:02:07.189Z,994.44
2023-06-11T03:03:07.291Z,994.43
2023-06-11T03:04:07.273Z,994.43
2023-06-11T03:05:07.189Z,994.42
2023-06-11T03:06:07.159Z,994.49
2023-06-11T03:07:07.142Z,994.44
2023-06-11T03:08:07.137Z,994.50
2023-06-11T03:09:07.164Z,994.44
2023-06-11T03:10:07.156Z,994.42
2023-06-11T03:11:07.112Z,994.45
2023-06-11T03:12:07.100Z,994.44
2023-06-11T03:13:07.095Z,994.49
2023-06-11T03:14:07.110Z,994.53
2023-06-11T03:15:07.092Z,994.54
2023-06-11T03:16:07.106Z,994.56
2023-06-11T03:17:07.063Z,994.49
2023-06-11T03:18:07.122Z,994.53
2023-06-11T03:19:07.080Z,994.55
2023-06-11T03:20:07.047Z,994.57
2023-06-11T03:21:07.029Z,994.54
2023-06-11T03:22:07.021Z,994.50
2023-06-11T03:23:07.041Z,994.53
2023-06-11T03:24:07.063Z,994.48
2023-06-11T03:25:06.999Z,994.48
2023-06-11T03:26:06.991Z,994.47
2023-06-11T03:27:07.002Z,994.48
2023-06-11T03:28:07.000Z,994.43
2023-06-11T03:29:06.977Z,994.44
2023-06-11T03:30:06.966Z,994.47
2023-06-11T03:31:07.039Z,994.45
2023-06-11T03:32:06.943Z,994.49
2023-06-11T03:33:06.997Z,994.50
2023-06-11T03:34:06.928Z,994.52
2023-06-11T03:35:06.920Z,994.57
2023-06-11T03:36:06.910Z,994.46
2023-06-11T03:37:06.905Z,994.48
2023-06-11T03:38:06.921Z,994.52
2023-06-11T03:39:06.891Z,994.52
2023-06-11T03:40:06.892Z,994.51
2023-06-11T03:41:06.873Z,994.57
2023-06-11T03:42:06.898Z,994.57
2023-06-11T03:43:06.886Z,994.62
2023-06-11T03:44:06.874Z,994.58
2023-06-11T03:45:06.839Z,994.63
2023-06-11T03:46:06.834Z,994.53
2023-06-11T03:47:06.990Z,994.64
2023-06-11T03:48:06.847Z,994.69
2023-06-11T03:49:06.809Z,994.62
2023-06-11T03:50:06.799Z,994.72
2023-06-11T03:51:06.787Z,994.72
2023-06-11T03:52:06.813Z,994.77
2023-06-11T03:53:06.786Z,994.61
2023-06-11T03:54:06.769Z,994.68
2023-06-11T03:55:06.758Z,994.71
2023-06-11T03:56:06.775Z,994.67
2023-06-11T03:57:06.768Z,994.73
2023-06-11T03:58:06.727Z,994.76
2023-06-11T03:59:07.735Z,994.78
2023-06-11T04:00:06.716Z,994.72
2023-06-11T04:01:06.744Z,994.72
2023-06-11T04:02:06.718Z,994.80
2023-06-11T04:03:06.893Z,994.81
2023-06-11T04:04:06.748Z,994.82
2023-06-11T04:05:06.674Z,994.84
2023-06-11T04:06:07.698Z,994.89
2023-06-11T04:07:06.689Z,994.86
2023-06-11T04:08:06.674Z,994.89
2023-06-11T04:09:06.645Z,994.93
2023-06-11T04:10:06.663Z,994.90
2023-06-11T04:11:06.735Z,994.85
2023-06-11T04:12:06.619Z,994.84
2023-06-11T04:13:06.613Z,994.83
2023-06-11T04:14:06.617Z,994.92
2023-06-11T04:15:06.623Z,994.87
2023-06-11T04:16:07.419Z,994.97
2023-06-11T04:17:07.593Z,994.95
2023-06-11T04:18:06.640Z,994.94
2023-06-11T04:19:06.566Z,994.95
2023-06-11T04:20:06.587Z,995.00
2023-06-11T04:21:06.547Z,994.97
2023-06-11T04:22:06.547Z,995.03
2023-06-11T04:23:06.532Z,994.95
2023-06-11T04:24:09.256Z,994.95
2023-06-11T04:25:07.552Z,995.04
2023-06-11T04:26:06.510Z,994.99
2023-06-11T04:27:06.503Z,995.00
2023-06-11T04:28:06.499Z,995.09
2023-06-11T04:29:06.511Z,995.07
2023-06-11T04:30:06.490Z,995.03
2023-06-11T04:31:06.483Z,994.99
2023-06-11T04:32:06.461Z,995.01
2023-06-11T04:33:06.488Z,995.01
2023-06-11T04:34:06.468Z,995.00
2023-06-11T04:35:06.441Z,994.98
2023-06-11T04:36:06.424Z,994.96
2023-06-11T04:37:06.421Z,994.99
2023-06-11T04:38:06.443Z,995.08
2023-06-11T04:39:06.428Z,995.06
2023-06-11T04:40:06.401Z,995.04
2023-06-11T04:41:06.413Z,995.08
2023-06-11T04:42:06.392Z,995.17
2023-06-11T04:43:06.398Z,995.08
2023-06-11T04:44:06.396Z,995.17
2023-06-11T04:45:06.356Z,995.14
2023-06-11T04:46:06.416Z,995.11
2023-06-11T04:47:06.436Z,995.14
2023-06-11T04:48:38.274Z,995.11
2023-06-11T04:49:06.329Z,995.12
2023-06-11T04:50:06.356Z,995.05
2023-06-11T04:51:06.313Z,995.08
2023-06-11T04:52:06.319Z,995.10
2023-06-11T04:53:06.339Z,995.02
2023-06-11T04:54:06.300Z,995.03
2023-06-11T04:55:06.294Z,995.05
2023-06-11T04:56:06.320Z,995.13
2023-06-11T04:57:06.278Z,995.12
2023-06-11T04:58:06.293Z,995.09
2023-06-11T04:59:06.268Z,995.09
2023-06-11T05:00:06.260Z,995.06
2023-06-11T05:01:06.263Z,995.05
2023-06-11T05:02:06.283Z,995.13
2023-06-11T05:03:06.284Z,995.14
2023-06-11T05:04:06.251Z,995.09
2023-06-11T05:05:06.237Z,995.09
2023-06-11T05:06:06.239Z,995.11
2023-06-11T05:07:06.253Z,995.09
2023-06-11T05:08:06.281Z,995.07
2023-06-11T05:09:06.214Z,995.07
2023-06-11T05:10:06.193Z,995.09
2023-06-11T05:11:06.184Z,995.13
2023-06-11T05:12:06.200Z,995.22
2023-06-11T05:13:06.177Z,995.20
2023-06-11T05:14:06.169Z,995.19
2023-06-11T05:15:06.167Z,995.16
2023-06-11T05:16:06.170Z,995.14
2023-06-11T05:17:06.185Z,995.18
2023-06-11T05:18:06.196Z,995.22
2023-06-11T05:19:06.132Z,995.21
2023-06-11T05:20:06.126Z,995.14
2023-06-11T05:21:06.171Z,995.24
2023-06-11T05:22:06.107Z,995.25
2023-06-11T05:23:06.099Z,995.24
2023-06-11T05:24:06.126Z,995.22
2023-06-11T05:25:06.093Z,995.23
2023-06-11T05:26:06.095Z,995.26
2023-06-11T05:27:07.071Z,995.25
2023-06-11T05:28:06.064Z,995.18
2023-06-11T05:29:06.057Z,995.21
2023-06-11T05:30:06.089Z,995.24
2023-06-11T05:31:06.064Z,995.26
2023-06-11T05:32:06.058Z,995.29
2023-06-11T05:33:06.053Z,995.23
2023-06-11T05:34:06.022Z,995.23
2023-06-11T05:35:06.064Z,995.24
2023-06-11T05:36:06.007Z,995.23
2023-06-11T05:37:06.008Z,995.29
2023-06-11T05:38:05.992Z,995.20
2023-06-11T05:39:05.991Z,995.29
2023-06-11T05:40:06.005Z,995.23
2023-06-11T05:41:05.969Z,995.23
2023-06-11T05:42:05.962Z,995.24
2023-06-11T05:43:05.975Z,995.29
2023-06-11T05:44:05.959Z,995.16
2023-06-11T05:45:05.966Z,995.20
2023-06-11T05:46:05.994Z,995.22
2023-06-11T05:47:05.970Z,995.21
2023-06-11T05:48:05.961Z,995.24
2023-06-11T05:49:05.941Z,995.26
2023-06-11T05:50:05.948Z,995.23
2023-06-11T05:51:05.918Z,995.22
2023-06-11T05:52:05.897Z,995.25
2023-06-11T05:53:05.889Z,995.28
2023-06-11T05:54:05.907Z,995.32
2023-06-11T05:55:05.875Z,995.31
2023-06-11T05:56:05.873Z,995.34
2023-06-11T05:57:05.861Z,995.32
2023-06-11T05:58:05.856Z,995.32
2023-06-11T05:59:05.880Z,995.28
2023-06-11T06:00:05.912Z,995.30
2023-06-11T06:01:05.837Z,995.29
2023-06-11T06:02:05.886Z,995.31
2023-06-11T06:03:06.058Z,995.34
2023-06-11T06:04:05.994Z,995.30
2023-06-11T06:05:05.826Z,995.27
2023-06-11T06:06:05.810Z,995.35
2023-06-11T06:07:05.800Z,995.37
2023-06-11T06:08:05.812Z,995.35
2023-06-11T06:09:05.819Z,995.39
2023-06-11T06:10:05.788Z,995.35
2023-06-11T06:11:05.776Z,995.33
2023-06-11T06:12:05.767Z,995.36
2023-06-11T06:13:05.790Z,995.33
2023-06-11T06:14:05.754Z,995.27
2023-06-11T06:15:05.749Z,995.24
2023-06-11T06:16:05.753Z,995.25
2023-06-11T06:17:05.744Z,995.26
2023-06-11T06:18:05.875Z,995.29
2023-06-11T06:19:05.721Z,995.26
2023-06-11T06:20:05.717Z,995.24
2023-06-11T06:21:05.712Z,995.34
2023-06-11T06:22:05.703Z,995.25
2023-06-11T06:23:05.733Z,995.29
2023-06-11T06:24:05.734Z,995.24
2023-06-11T06:25:05.690Z,995.25
2023-06-11T06:26:05.681Z,995.28
2023-06-11T06:27:05.729Z,995.24
2023-06-11T06:28:05.695Z,995.22
2023-06-11T06:29:05.664Z,995.28
2023-06-11T06:30:05.660Z,995.32
2023-06-11T06:31:05.651Z,995.31
2023-06-11T06:32:05.707Z,995.31
2023-06-11T06:33:05.668Z,995.34
2023-06-11T06:34:05.640Z,995.33
2023-06-11T06:35:05.633Z,995.32
2023-06-11T06:36:05.630Z,995.31
2023-06-11T06:37:05.662Z,995.28
2023-06-11T06:38:05.619Z,995.33
2023-06-11T06:39:05.613Z,995.37
2023-06-11T06:40:05.623Z,995.28
2023-06-11T06:41:05.619Z,995.35
2023-06-11T06:42:05.618Z,995.30
2023-06-11T06:43:05.599Z,995.26
2023-06-11T06:44:05.613Z,995.26
2023-06-11T06:45:05.570Z,995.32
2023-06-11T06:46:05.601Z,995.29
2023-06-11T06:47:05.562Z,995.30
2023-06-11T06:48:05.601Z,995.34
2023-06-11T06:49:05.603Z,995.21
2023-06-11T06:50:05.556Z,995.24
2023-06-11T06:51:05.559Z,995.24
2023-06-11T06:52:05.528Z,995.31
2023-06-11T06:53:05.538Z,995.28
2023-06-11T06:54:05.519Z,995.35
2023-06-11T06:55:05.509Z,995.33
2023-06-11T06:56:05.528Z,995.41
2023-06-11T06:57:05.505Z,995.32
2023-06-11T06:58:05.495Z,995.33
2023-06-11T06:59:05.483Z,995.26
2023-06-11T07:00:05.521Z,995.31
2023-06-11T07:01:05.529Z,995.32
2023-06-11T07:02:08.717Z,995.29
2023-06-11T07:03:05.513Z,995.28
2023-06-11T07:04:05.458Z,995.29
2023-06-11T07:05:05.502Z,995.24
2023-06-11T07:06:05.509Z,995.28
2023-06-11T07:07:05.444Z,995.31
2023-06-11T07:08:05.430Z,995.27
2023-06-11T07:09:05.427Z,995.31
2023-06-11T07:10:05.444Z,995.33
2023-06-11T07:11:05.414Z,995.34
2023-06-11T07:12:05.398Z,995.36
2023-06-11T07:13:05.403Z,995.20
2023-06-11T07:14:05.418Z,995.30
2023-06-11T07:15:05.423Z,995.29
2023-06-11T07:16:05.402Z,995.28
2023-06-11T07:17:05.385Z,995.22
2023-06-11T07:18:05.426Z,995.27
2023-06-11T07:19:05.402Z,995.25
2023-06-11T07:20:05.393Z,995.33
2023-06-11T07:21:05.363Z,995.32
2023-06-11T07:22:05.342Z,995.34
2023-06-11T07:23:05.341Z,995.33
2023-06-11T07:24:05.386Z,995.23
2023-06-11T07:25:05.337Z,995.36
2023-06-11T07:26:05.323Z,995.39
2023-06-11T07:27:05.310Z,995.28
2023-06-11T07:28:05.349Z,995.42
2023-06-11T07:29:05.308Z,995.41
2023-06-11T07:30:06.292Z,995.35
2023-06-11T07:31:05.366Z,995.41
2023-06-11T07:32:05.276Z,995.42
2023-06-11T07:33:05.362Z,995.32
2023-06-11T07:34:05.258Z,995.35
2023-06-11T07:35:05.254Z,995.30
2023-06-11T07:36:05.242Z,995.36
2023-06-11T07:37:05.235Z,995.36
2023-06-11T07:38:05.252Z,995.39
2023-06-11T07:39:05.223Z,995.37
2023-06-11T07:40:05.218Z,995.48
2023-06-11T07:41:05.212Z,995.34
2023-06-11T07:42:05.232Z,995.36
2023-06-11T07:43:05.246Z,995.29
2023-06-11T07:44:05.192Z,995.34
2023-06-11T07:45:05.183Z,995.37
2023-06-11T07:46:05.217Z,995.31
2023-06-11T07:47:05.252Z,995.48
2023-06-11T07:48:05.240Z,995.36
2023-06-11T07:49:05.157Z,995.33
2023-06-11T07:50:05.165Z,995.33
2023-06-11T07:51:05.149Z,995.33
2023-06-11T07:52:05.169Z,995.37
2023-06-11T07:53:05.135Z,995.34
2023-06-11T07:54:05.134Z,995.28
2023-06-11T07:55:05.126Z,995.33
2023-06-11T07:56:05.145Z,995.30
2023-06-11T07:57:05.135Z,995.34
2023-06-11T07:58:05.098Z,995.28
2023-06-11T07:59:05.092Z,995.36
2023-06-11T08:00:05.085Z,995.32
2023-06-11T08:01:05.108Z,995.34
2023-06-11T08:02:05.105Z,995.39
2023-06-11T08:03:05.166Z,995.32
2023-06-11T08:04:05.067Z,995.34
2023-06-11T08:05:05.048Z,995.34
2023-06-11T08:06:05.088Z,995.30
2023-06-11T08:07:05.035Z,995.33
2023-06-11T08:08:05.023Z,995.31
2023-06-11T08:09:05.019Z,995.37
2023-06-11T08:10:05.055Z,995.39
2023-06-11T08:11:05.037Z,995.32
2023-06-11T08:12:05.995Z,995.45
2023-06-11T08:13:04.990Z,995.33
2023-06-11T08:14:04.985Z,995.32
2023-06-11T08:15:05.012Z,995.32
2023-06-11T08:16:04.983Z,995.32
2023-06-11T08:17:05.012Z,995.35
2023-06-11T08:18:04.978Z,995.28
2023-06-11T08:19:04.952Z,995.25
2023-06-11T08:20:04.968Z,995.30
2023-06-11T08:21:04.940Z,995.37
2023-06-11T08:22:04.929Z,995.30
2023-06-11T08:23:04.938Z,995.28
2023-06-11T08:24:05.021Z,995.21
2023-06-11T08:25:04.947Z,995.24
2023-06-11T08:26:04.921Z,995.22
2023-06-11T08:27:04.899Z,995.26
2023-06-11T08:28:04.887Z,995.31
2023-06-11T08:29:04.907Z,995.22
2023-06-11T08:30:04.871Z,995.23
2023-06-11T08:31:04.869Z,995.20
2023-06-11T08:32:04.882Z,995.22
2023-06-11T08:33:04.878Z,995.20
2023-06-11T08:34:04.868Z,995.22
2023-06-11T08:35:04.837Z,995.17
2023-06-11T08:36:04.848Z,995.21
2023-06-11T08:37:04.823Z,995.10
2023-06-11T08:38:04.815Z,995.15
2023-06-11T08:39:04.842Z,995.13
2023-06-11T08:40:04.803Z,995.11
2023-06-11T08:41:04.799Z,995.07
2023-06-11T08:42:04.797Z,995.09
2023-06-11T08:43:04.813Z,995.17
2023-06-11T08:44:04.805Z,995.11
2023-06-11T08:45:04.768Z,995.09
2023-06-11T08:46:04.806Z,995.10
2023-06-11T08:47:04.759Z,995.16
2023-06-11T08:48:04.853Z,995.07
2023-06-11T08:49:04.766Z,995.12
2023-06-11T08:50:04.745Z,995.12
2023-06-11T08:51:04.731Z,995.03
2023-06-11T08:52:04.734Z,995.09
2023-06-11T08:53:04.745Z,995.01
2023-06-11T08:54:04.707Z,995.08
2023-06-11T08:55:04.703Z,995.00
2023-06-11T08:56:04.697Z,994.99
2023-06-11T08:57:04.690Z,995.04
2023-06-11T08:58:04.701Z,995.10
2023-06-11T08:59:04.671Z,995.06
2023-06-11T09:00:04.666Z,995.01
2023-06-11T09:01:04.659Z,995.14
2023-06-11T09:02:04.757Z,995.21
2023-06-11T09:03:04.738Z,995.18
2023-06-11T09:04:04.648Z,995.05
2023-06-11T09:05:04.628Z,994.99
2023-06-11T09:06:04.618Z,994.97
2023-06-11T09:07:04.953Z,995.01
2023-06-11T09:08:04.651Z,995.04
2023-06-11T09:09:04.601Z,994.98
2023-06-11T09:10:04.623Z,994.91
2023-06-11T09:11:04.591Z,995.07
2023-06-11T09:12:04.623Z,995.10
2023-06-11T09:13:04.578Z,995.07
2023-06-11T09:14:04.574Z,994.96
2023-06-11T09:15:04.594Z,995.00
2023-06-11T09:16:04.575Z,994.58
2023-06-11T09:17:04.574Z,994.82
2023-06-11T09:18:05.381Z,995.02
2023-06-11T09:19:04.534Z,994.94
2023-06-11T09:20:04.519Z,994.90
2023-06-11T09:21:04.579Z,995.19
2023-06-11T09:22:04.538Z,994.98
2023-06-11T09:23:04.514Z,994.94
2023-06-11T09:24:04.520Z,994.94
2023-06-11T09:25:04.488Z,994.97
2023-06-11T09:26:04.518Z,995.16
2023-06-11T09:27:04.479Z,994.97
2023-06-11T09:28:04.472Z,994.99
2023-06-11T09:29:04.463Z,994.88
2023-06-11T09:30:04.460Z,994.91
2023-06-11T09:31:04.480Z,994.86
2023-06-11T09:32:09.968Z,994.87
2023-06-11T09:33:05.486Z,994.94
2023-06-11T09:34:04.424Z,994.99
2023-06-11T09:35:04.443Z,994.93
2023-06-11T09:36:04.447Z,995.09
2023-06-11T09:37:04.403Z,994.90
2023-06-11T09:38:04.397Z,995.08
2023-06-11T09:39:04.384Z,994.98
2023-06-11T09:40:04.411Z,994.87
2023-06-11T09:41:04.371Z,994.95
2023-06-11T09:42:04.367Z,995.00
2023-06-11T09:43:04.366Z,994.96
2023-06-11T09:44:04.363Z,994.96
2023-06-11T09:45:04.368Z,994.90
2023-06-11T09:46:04.397Z,994.97
2023-06-11T09:47:04.328Z,995.10
2023-06-11T09:48:04.337Z,995.10
2023-06-11T09:49:04.340Z,995.33
2023-06-11T09:50:04.341Z,995.05
2023-06-11T09:51:04.291Z,995.22
2023-06-11T09:52:04.291Z,994.93
2023-06-11T09:53:04.277Z,995.13
2023-06-11T09:54:04.308Z,995.06
2023-06-11T09:55:04.284Z,995.10
2023-06-11T09:56:10.964Z,994.93
2023-06-11T09:57:06.269Z,995.10
2023-06-11T09:58:04.254Z,995.09
2023-06-11T09:59:04.275Z,994.86
2023-06-11T10:00:04.245Z,995.03
2023-06-11T10:01:07.211Z,995.14
2023-06-11T10:02:05.222Z,995.16
2023-06-11T10:03:04.321Z,994.94
2023-06-11T10:04:04.280Z,995.21
2023-06-11T10:05:04.208Z,995.05
2023-06-11T10:06:04.193Z,995.14
2023-06-11T10:07:04.191Z,995.03
2023-06-11T10:08:04.229Z,994.92
2023-06-11T10:09:04.174Z,995.02
2023-06-11T10:10:04.165Z,995.07
2023-06-11T10:11:04.187Z,995.02
2023-06-11T10:12:04.149Z,994.94
2023-06-11T10:13:04.180Z,995.04
2023-06-11T10:14:04.138Z,994.99
2023-06-11T10:15:04.128Z,995.08
2023-06-11T10:16:04.249Z,995.03
2023-06-11T10:17:04.117Z,994.86
2023-06-11T10:18:04.183Z,995.16
2023-06-11T10:19:04.108Z,994.94
2023-06-11T10:20:04.094Z,994.83
2023-06-11T10:21:04.088Z,995.03
2023-06-11T10:22:04.083Z,995.11
2023-06-11T10:23:06.332Z,995.06
2023-06-11T10:24:05.119Z,995.03
2023-06-11T10:25:04.064Z,994.84
2023-06-11T10:26:04.041Z,994.92
2023-06-11T10:27:04.092Z,995.10
2023-06-11T10:28:04.059Z,994.91
2023-06-11T10:29:06.345Z,994.94
2023-06-11T10:30:04.012Z,994.92
2023-06-11T10:31:04.016Z,994.89
2023-06-11T10:32:04.015Z,994.87
2023-06-11T10:33:04.160Z,994.89
2023-06-11T10:34:04.118Z,995.05
2023-06-11T10:35:04.141Z,995.14
2023-06-11T10:36:03.970Z,995.02
2023-06-11T10:37:03.983Z,994.96
2023-06-11T10:38:03.955Z,994.93
2023-06-11T10:39:03.942Z,994.90
2023-06-11T10:40:03.930Z,994.92
2023-06-11T10:41:03.999Z,994.86
2023-06-11T10:42:03.975Z,994.89
2023-06-11T10:43:03.904Z,994.77
2023-06-11T10:44:03.899Z,994.82
2023-06-11T10:45:03.880Z,995.04
2023-06-11T10:46:04.910Z,994.89
2023-06-11T10:47:04.087Z,994.90
2023-06-11T10:48:36.271Z,995.09
2023-06-11T10:49:03.861Z,995.18
2023-06-11T10:50:03.857Z,994.90
2023-06-11T10:51:03.892Z,995.05
2023-06-11T10:52:03.867Z,995.02
2023-06-11T10:53:03.891Z,995.09
2023-06-11T10:54:03.840Z,994.95
2023-06-11T10:55:03.826Z,995.06
2023-06-11T10:56:03.854Z,995.25
2023-06-11T10:57:03.838Z,995.04
2023-06-11T10:58:03.807Z,995.06
2023-06-11T10:59:03.791Z,995.15
2023-06-11T11:00:03.805Z,995.06
2023-06-11T11:01:03.801Z,995.06
2023-06-11T11:02:03.791Z,995.19
2023-06-11T11:03:03.817Z,995.16
2023-06-11T11:04:03.867Z,995.15
2023-06-11T11:05:03.770Z,995.08
2023-06-11T11:06:03.760Z,995.01
2023-06-11T11:07:03.721Z,995.12
2023-06-11T11:08:03.719Z,994.92
2023-06-11T11:09:03.712Z,995.25
2023-06-11T11:10:03.738Z,995.11
2023-06-11T11:11:03.712Z,995.14
2023-06-11T11:12:03.698Z,995.02
2023-06-11T11:13:03.685Z,995.07
2023-06-11T11:14:03.675Z,994.92
2023-06-11T11:15:03.690Z,994.99
2023-06-11T11:16:03.759Z,994.92
2023-06-11T11:17:03.705Z,994.97
2023-06-11T11:18:03.728Z,995.10
2023-06-11T11:19:03.633Z,994.96
2023-06-11T11:20:03.660Z,995.05
2023-06-11T11:21:03.624Z,994.90
2023-06-11T11:22:03.619Z,994.88
2023-06-11T11:23:03.608Z,995.36
2023-06-11T11:24:03.702Z,995.01
2023-06-11T11:25:03.612Z,994.94
2023-06-11T11:26:03.589Z,994.93
2023-06-11T11:27:03.582Z,994.91
2023-06-11T11:28:03.573Z,994.96
2023-06-11T11:29:03.577Z,994.77
2023-06-11T11:30:04.155Z,994.60
2023-06-11T11:31:04.543Z,994.88
2023-06-11T11:32:03.582Z,994.97
2023-06-11T11:33:03.647Z,994.93
2023-06-11T11:34:03.539Z,995.10
2023-06-11T11:35:03.516Z,994.85
2023-06-11T11:36:03.499Z,994.80
2023-06-11T11:37:03.497Z,994.96
2023-06-11T11:38:03.494Z,994.91
2023-06-11T11:39:03.506Z,994.87
2023-06-11T11:40:03.475Z,994.92
2023-06-11T11:41:03.474Z,995.04
2023-06-11T11:42:03.473Z,994.82
2023-06-11T11:43:03.488Z,994.86
2023-06-11T11:44:03.478Z,994.89
2023-06-11T11:45:03.432Z,994.92
2023-06-11T11:46:03.465Z,994.98
2023-06-11T11:47:03.435Z,994.88
2023-06-11T11:48:05.696Z,994.93
2023-06-11T11:49:04.412Z,994.85
2023-06-11T11:50:03.402Z,994.79
2023-06-11T11:51:03.395Z,994.78
2023-06-11T11:52:03.390Z,994.87
2023-06-11T11:53:03.401Z,994.77
2023-06-11T11:54:03.907Z,994.73
2023-06-11T11:55:04.358Z,994.86
2023-06-11T11:56:06.451Z,994.81
2023-06-11T11:57:04.371Z,994.81
2023-06-11T11:58:03.373Z,994.83
2023-06-11T11:59:03.325Z,994.92
2023-06-11T12:00:03.314Z,994.88
2023-06-11T12:01:03.315Z,994.86
2023-06-11T12:02:03.331Z,994.83
2023-06-11T12:03:03.401Z,994.69
2023-06-11T12:04:03.345Z,994.87
2023-06-11T12:05:03.280Z,994.76
2023-06-11T12:06:03.380Z,994.80
2023-06-11T12:07:03.338Z,994.74
2023-06-11T12:08:03.252Z,994.66
2023-06-11T12:09:03.253Z,994.66
2023-06-11T12:10:04.038Z,994.69
2023-06-11T12:11:04.255Z,994.73
2023-06-11T12:12:06.121Z,994.70
2023-06-11T12:13:04.206Z,994.82
2023-06-11T12:14:03.194Z,994.68
2023-06-11T12:15:03.208Z,994.77
2023-06-11T12:16:04.900Z,994.69
2023-06-11T12:17:04.412Z,994.73
2023-06-11T12:18:03.194Z,994.85
2023-06-11T12:19:18.712Z,994.67
2023-06-11T12:20:05.154Z,994.61
2023-06-11T12:21:03.164Z,994.63
2023-06-11T12:22:03.136Z,994.50
2023-06-11T12:23:03.132Z,994.57
2023-06-11T12:24:03.179Z,994.57
2023-06-11T12:25:03.182Z,994.48
2023-06-11T12:26:03.166Z,994.53
2023-06-11T12:27:06.482Z,994.46
2023-06-11T12:28:05.097Z,994.50